Time;durP1;ratioP1;P1;durP2;ratioP2;P2;SDS_P1;SDS_P2;PMS_P1;PMS_P2;Temp;Humidity;BMP_temperature;BMP_pressure;BME280_temperature;BME280_humidity;BME280_pressure;Samples;Min_cycle;Max_cycle;Signal;HPM_P1;HPM_P2
2022/03/10 00:00:18;;;;;;;6.90;4.10;;;;;;;-4.57;72.39;99738.61;104768;1271;76043;-28
2022/03/10 00:02:47;;;;;;;7.40;3.80;;;;;;;-4.64;72.20;99739.51;104705;1273;74495;-29
2022/03/10 00:05:18;;;;;;;7.10;4.00;;;;;;;-4.74;72.45;99739.92;104729;1273;61215;-28
2022/03/10 00:07:48;;;;;;;10.50;3.50;;;;;;;-4.86;72.86;99741.38;104827;1271;61029;-28
2022/03/10 00:10:17;;;;;;;7.70;3.80;;;;;;;-4.99;73.12;99734.69;104878;1271;75607;-28
2022/03/10 00:12:50;;;;;;;10.20;6.00;;;;;;;-5.12;73.46;99734.43;104828;1271;75831;-28
2022/03/10 00:15:22;;;;;;;11.10;6.10;;;;;;;-5.30;74.21;99732.52;104694;1273;74403;-28
2022/03/10 00:17:52;;;;;;;7.70;3.80;;;;;;;-5.22;74.35;99733.30;104641;1273;61145;-28
2022/03/10 00:20:21;;;;;;;5.60;3.00;;;;;;;-4.78;72.99;99735.73;104711;1272;61118;-28
2022/03/10 00:22:55;;;;;;;6.70;4.00;;;;;;;-4.68;71.95;99736.66;104809;1273;75581;-28
2022/03/10 00:25:24;;;;;;;7.30;4.60;;;;;;;-4.95;72.47;99738.05;104788;1271;76055;-28
2022/03/10 00:27:53;;;;;;;8.30;4.80;;;;;;;-4.95;72.30;99740.93;104852;1271;74544;-30
2022/03/10 00:30:22;;;;;;;4.30;2.90;;;;;;;-5.17;73.18;99738.18;104815;1271;61084;-31
2022/03/10 00:32:52;;;;;;;5.90;3.30;;;;;;;-5.35;73.07;99741.34;104839;1271;61163;-29
2022/03/10 00:35:23;;;;;;;7.30;4.40;;;;;;;-5.33;73.10;99738.27;104998;1271;73866;-29
2022/03/10 00:37:59;;;;;;;9.00;4.30;;;;;;;-5.49;73.19;99742.42;104634;1274;76000;-29
2022/03/10 00:40:28;;;;;;;7.50;4.00;;;;;;;-5.61;73.44;99741.96;104784;1271;74799;-29
2022/03/10 00:42:58;;;;;;;4.40;2.50;;;;;;;-5.36;72.56;99748.11;104949;1273;63225;-29
2022/03/10 00:45:27;;;;;;;5.20;2.90;;;;;;;-4.98;70.69;99748.91;105131;1273;61100;-29
2022/03/10 00:47:56;;;;;;;5.10;3.40;;;;;;;-4.86;70.18;99752.89;105158;1271;76362;-29
2022/03/10 00:50:25;;;;;;;3.70;2.40;;;;;;;-5.06;70.58;99753.52;105182;1271;76212;-29
2022/03/10 00:52:55;;;;;;;4.30;2.60;;;;;;;-5.33;71.11;99750.79;105095;1272;74209;-29
2022/03/10 00:55:24;;;;;;;5.30;3.20;;;;;;;-5.43;72.03;99754.58;105118;1272;61118;-30
2022/03/10 00:57:53;;;;;;;6.50;3.60;;;;;;;-5.63;72.69;99751.61;104943;1271;61033;-32
2022/03/10 01:00:24;;;;;;;9.90;5.30;;;;;;;-5.72;72.68;99748.27;104840;1271;75652;-30
2022/03/10 01:02:55;;;;;;;9.80;4.90;;;;;;;-5.76;73.37;99747.45;104736;1272;76207;-30
2022/03/10 01:05:24;;;;;;;4.20;2.80;;;;;;;-5.72;73.24;99749.79;104620;1271;73984;-30
2022/03/10 01:07:54;;;;;;;5.80;3.50;;;;;;;-5.46;72.28;99749.52;104818;1271;61128;-31
2022/03/10 01:10:24;;;;;;;6.20;3.00;;;;;;;-5.36;72.27;99753.70;104918;1271;61154;-31
2022/03/10 01:13:15;;;;;;;4.90;3.00;;;;;;;-5.53;72.79;99753.27;105117;1271;76046;-33
2022/03/10 01:15:48;;;;;;;11.50;5.40;;;;;;;-5.67;73.58;99754.50;104751;1275;76175;-30
2022/03/10 01:18:18;;;;;;;8.50;4.50;;;;;;;-5.71;74.12;99755.03;104800;1271;74260;-30
2022/03/10 01:20:48;;;;;;;9.80;5.10;;;;;;;-5.94;74.83;99756.12;104825;1271;61045;-29
2022/03/10 01:23:17;;;;;;;8.80;4.20;;;;;;;-6.01;75.71;99754.48;104797;1271;61073;-28
2022/03/10 01:25:52;;;;;;;10.60;5.50;;;;;;;-5.65;74.35;99757.20;104857;1271;77040;-29
2022/03/10 01:28:21;;;;;;;8.50;5.10;;;;;;;-5.33;73.55;99755.89;104869;1271;76062;-29
2022/03/10 01:30:51;;;;;;;9.90;5.40;;;;;;;-5.49;73.82;99753.77;104735;1271;74439;-29
2022/03/10 01:33:20;;;;;;;8.30;4.80;;;;;;;-5.67;74.48;99758.56;104767;1271;61144;-29
2022/03/10 01:35:49;;;;;;;5.30;4.00;;;;;;;-5.81;75.12;99758.44;105158;1271;61596;-29
2022/03/10 01:38:18;;;;;;;10.90;5.40;;;;;;;-6.09;76.28;99758.89;104893;1271;74645;-28
2022/03/10 01:40:48;;;;;;;4.70;3.60;;;;;;;-6.24;76.83;99762.13;104731;1273;75102;-29
2022/03/10 01:43:17;;;;;;;9.30;4.50;;;;;;;-5.97;76.39;99766.79;104814;1271;74159;-29
2022/03/10 01:45:46;;;;;;;8.00;3.50;;;;;;;-5.60;75.12;99769.54;104796;1273;61182;-29
2022/03/10 01:48:15;;;;;;;4.20;2.70;;;;;;;-5.52;73.81;99772.72;104824;1271;61065;-29
2022/03/10 01:50:44;;;;;;;7.30;4.20;;;;;;;-5.70;74.77;99780.06;104743;1273;74210;-29
2022/03/10 01:53:14;;;;;;;9.70;5.10;;;;;;;-5.89;75.69;99781.14;104683;1271;76113;-29
2022/03/10 01:55:46;;;;;;;6.20;3.80;;;;;;;-5.97;76.19;99783.70;104677;1272;74422;-29
2022/03/10 01:58:15;;;;;;;11.10;6.30;;;;;;;-6.00;76.29;99784.72;104746;1274;61203;-29
2022/03/10 02:00:44;;;;;;;7.90;4.60;;;;;;;-6.07;76.64;99788.30;104835;1271;61084;-29
2022/03/10 02:03:14;;;;;;;8.00;4.90;;;;;;;-6.10;76.76;99790.16;104940;1271;75599;-29
2022/03/10 02:05:43;;;;;;;15.40;7.40;;;;;;;-5.50;75.16;99792.35;104834;1271;76005;-29
2022/03/10 02:11:01;;;;;;;8.80;4.80;;;;;;;-5.60;75.08;99799.48;104701;1271;61150;-29
2022/03/10 02:13:32;;;;;;;9.00;4.70;;;;;;;-5.70;76.11;99806.79;104704;1271;61161;-29
2022/03/10 02:18:53;;;;;;;7.60;5.00;;;;;;;-6.20;77.96;99817.06;104812;1272;75996;-29
2022/03/10 02:21:22;;;;;;;8.50;5.30;;;;;;;-6.09;78.10;99819.57;104778;1271;75431;-29
2022/03/10 02:23:52;;;;;;;3.60;2.80;;;;;;;-5.94;77.74;99820.56;104976;1271;63315;-29
2022/03/10 02:26:22;;;;;;;5.10;3.40;;;;;;;-5.41;76.26;99822.77;105113;1273;61130;-29
2022/03/10 02:28:51;;;;;;;3.40;2.60;;;;;;;-5.74;77.08;99822.20;104872;1271;75665;-29
2022/03/10 02:31:21;;;;;;;8.20;5.60;;;;;;;-5.74;77.25;99825.23;104814;1271;76639;-29
2022/03/10 02:33:52;;;;;;;6.90;4.70;;;;;;;-5.75;77.82;99831.17;104847;1271;74488;-29
2022/03/10 02:36:21;;;;;;;7.70;5.20;;;;;;;-5.82;78.07;99829.99;104124;1271;1003165;-29
2022/03/10 02:38:51;;;;;;;7.60;4.20;;;;;;;-5.89;78.36;99833.23;104821;1271;61149;-29
2022/03/10 02:41:20;;;;;;;9.00;5.80;;;;;;;-5.88;78.72;99839.48;104995;1271;75545;-29
2022/03/10 02:43:50;;;;;;;16.80;10.70;;;;;;;-5.47;77.66;99838.36;105132;1271;76003;-31
2022/03/10 02:46:19;;;;;;;9.10;5.70;;;;;;;-5.50;77.57;99838.39;104811;1273;74466;-29
2022/03/10 02:48:48;;;;;;;15.30;7.40;;;;;;;-5.75;78.12;99837.26;104801;1271;61130;-29
2022/03/10 02:51:17;;;;;;;27.30;11.80;;;;;;;-5.68;78.23;99846.38;104808;1271;61009;-28
2022/03/10 02:53:46;;;;;;;19.30;10.00;;;;;;;-5.74;78.76;99848.08;104982;1271;75520;-29
2022/03/10 02:56:15;;;;;;;19.00;8.80;;;;;;;-6.02;79.43;99850.16;104846;1271;74623;-29
2022/03/10 02:58:44;;;;;;;25.10;11.40;;;;;;;-5.73;79.00;99852.64;104810;1271;74514;-30
2022/03/10 03:01:13;;;;;;;12.70;6.20;;;;;;;-5.54;78.15;99853.44;104868;1271;61029;-29
2022/03/10 03:03:43;;;;;;;11.30;6.10;;;;;;;-5.66;78.30;99859.91;104878;1271;60940;-29
2022/03/10 03:06:12;;;;;;;12.90;7.20;;;;;;;-5.91;79.44;99864.17;105086;1273;75527;-29
2022/03/10 03:08:44;;;;;;;18.10;8.70;;;;;;;-5.95;79.56;99863.69;105137;1271;76167;-29
2022/03/10 03:11:13;;;;;;;14.30;7.40;;;;;;;-6.00;79.74;99868.25;104800;1271;74532;-29
2022/03/10 03:13:45;;;;;;;11.50;6.80;;;;;;;-6.15;80.15;99871.14;104822;1271;62999;-28
2022/03/10 03:16:14;;;;;;;11.90;6.80;;;;;;;-5.91;79.74;99874.33;104854;1272;61075;-29
2022/03/10 03:18:43;;;;;;;8.30;5.60;;;;;;;-5.70;78.54;99875.31;105158;1271;75316;-28
2022/03/10 03:21:12;;;;;;;19.80;9.90;;;;;;;-5.96;79.57;99869.25;105137;1273;76052;-29
2022/03/10 03:23:42;;;;;;;9.80;6.40;;;;;;;-5.72;79.59;99878.20;105139;1271;74401;-29
2022/03/10 03:26:11;;;;;;;9.80;5.20;;;;;;;-5.86;79.65;99879.91;105024;1271;61113;-29
2022/03/10 03:28:42;;;;;;;26.10;13.50;;;;;;;-5.94;80.35;99881.60;105171;1271;61147;-29
2022/03/10 03:31:11;;;;;;;12.30;6.50;;;;;;;-5.81;80.03;99885.64;104790;1276;75961;-28
2022/03/10 03:33:43;;;;;;;11.60;6.50;;;;;;;-5.39;78.50;99887.94;104912;1271;76048;-29
2022/03/10 03:36:13;;;;;;;11.50;5.90;;;;;;;-5.51;78.40;99895.23;104855;1271;72374;-30
2022/03/10 03:38:43;;;;;;;12.60;6.60;;;;;;;-5.59;78.99;99896.45;104762;1274;61214;-29
2022/03/10 03:41:12;;;;;;;9.80;5.60;;;;;;;-5.68;79.05;99900.17;104876;1271;61092;-28
2022/03/10 03:43:42;;;;;;;10.20;5.80;;;;;;;-5.72;79.33;99908.98;104842;1271;75323;-29
2022/03/10 03:46:11;;;;;;;7.40;5.30;;;;;;;-5.80;79.66;99912.37;104745;1271;74986;-29
2022/03/10 03:48:40;;;;;;;11.40;6.20;;;;;;;-5.50;78.03;99912.15;104842;1271;74474;-29
2022/03/10 03:51:10;;;;;;;9.40;6.50;;;;;;;-5.46;76.04;99914.02;104922;1271;61032;-29
2022/03/10 03:53:40;;;;;;;8.80;5.10;;;;;;;-5.41;75.46;99921.45;104870;1269;61721;-29
2022/03/10 03:56:11;;;;;;;9.20;4.90;;;;;;;-5.42;75.62;99924.84;104842;1271;74371;-29
2022/03/10 03:58:41;;;;;;;9.10;5.60;;;;;;;-5.44;75.15;99919.77;104748;1271;76378;-29
2022/03/10 04:01:10;;;;;;;11.20;6.30;;;;;;;-5.57;75.91;99935.86;104804;1271;74414;-28
2022/03/10 04:03:39;;;;;;;9.40;5.40;;;;;;;-5.55;76.33;99937.89;104826;1271;62081;-29
2022/03/10 04:06:09;;;;;;;6.70;3.90;;;;;;;-5.44;76.30;99943.96;104913;1271;61135;-28
2022/03/10 04:08:38;;;;;;;5.00;3.30;;;;;;;-4.99;74.11;99946.06;104861;1271;75570;-29
2022/03/10 04:11:07;;;;;;;3.90;2.60;;;;;;;-4.41;72.62;99953.42;104831;1271;74969;-30
2022/03/10 04:13:37;;;;;;;8.10;5.30;;;;;;;-4.82;72.48;99950.38;104752;1271;73133;-28
2022/03/10 04:16:06;;;;;;;10.50;5.40;;;;;;;-5.10;73.83;99958.96;104725;1271;61289;-28
2022/03/10 04:18:36;;;;;;;10.60;5.50;;;;;;;-5.14;74.54;99958.80;104810;1271;61289;-30
2022/03/10 04:21:06;;;;;;;10.00;5.90;;;;;;;-5.39;74.64;99958.34;104835;1271;75441;-31
2022/03/10 04:23:35;;;;;;;11.90;5.90;;;;;;;-5.57;74.77;99960.05;104803;1271;76073;-28
2022/03/10 04:26:04;;;;;;;9.20;4.80;;;;;;;-5.70;75.48;99959.71;104820;1271;72637;-29
2022/03/10 04:28:34;;;;;;;8.70;4.90;;;;;;;-5.71;74.92;99964.45;104838;1271;61189;-28
2022/03/10 04:31:04;;;;;;;8.50;4.40;;;;;;;-5.36;73.40;99964.27;104812;1271;61644;-29
2022/03/10 04:33:43;;;;;;;7.50;5.00;;;;;;;-5.05;72.18;99969.45;104832;1271;75578;-29
2022/03/10 04:36:13;;;;;;;7.90;5.40;;;;;;;-5.21;72.24;99971.69;104722;1271;76016;-28
2022/03/10 04:38:42;;;;;;;6.50;4.30;;;;;;;-5.39;72.98;99973.23;104810;1271;76299;-28
2022/03/10 04:41:12;;;;;;;7.60;4.50;;;;;;;-5.22;72.80;99982.52;104819;1271;61108;-29
2022/03/10 04:43:41;;;;;;;9.60;5.20;;;;;;;-5.28;73.11;99986.60;104640;1274;61064;-28
2022/03/10 04:46:10;;;;;;;9.00;4.40;;;;;;;-5.57;73.31;99991.52;104828;1271;74364;-29
2022/03/10 04:48:39;;;;;;;8.30;5.00;;;;;;;-5.56;73.37;99991.36;104770;1271;76190;-29
2022/03/10 04:51:09;;;;;;;11.10;7.10;;;;;;;-5.76;73.38;99991.53;104742;1271;74327;-29
2022/03/10 04:53:38;;;;;;;13.00;5.20;;;;;;;-5.12;72.88;99998.75;104791;1271;61148;-28
2022/03/10 04:56:07;;;;;;;8.70;4.20;;;;;;;-4.57;70.10;100000.62;104802;1271;61143;-29
2022/03/10 04:58:36;;;;;;;7.40;4.00;;;;;;;-4.27;69.00;100003.02;104840;1271;74963;-29
2022/03/10 05:01:06;;;;;;;8.00;4.10;;;;;;;-4.58;69.63;100007.08;104788;1271;76767;-29
2022/03/10 05:03:35;;;;;;;4.80;4.00;;;;;;;-4.89;70.59;100007.17;104799;1271;74533;-29
2022/03/10 05:06:05;;;;;;;6.70;3.60;;;;;;;-5.13;70.78;100008.58;104947;1274;61186;-29
2022/03/10 05:08:35;;;;;;;6.40;4.30;;;;;;;-5.13;71.50;100012.81;104854;1271;61139;-29
2022/03/10 05:11:04;;;;;;;6.20;4.30;;;;;;;-5.46;71.93;100015.05;104813;1271;75563;-29
2022/03/10 05:13:34;;;;;;;10.70;4.70;;;;;;;-5.60;71.79;100016.40;104798;1271;76003;-29
2022/03/10 05:16:04;;;;;;;7.10;3.90;;;;;;;-5.65;72.35;100022.16;104794;1271;72778;-29
2022/03/10 05:18:35;;;;;;;6.10;3.80;;;;;;;-5.64;72.72;100029.42;104734;1272;61164;-27
2022/03/10 05:21:15;;;;;;;6.20;4.00;;;;;;;-5.65;72.59;100028.41;104397;1271;542061;-29
2022/03/10 05:23:44;;;;;;;8.60;4.50;;;;;;;-5.28;71.94;100035.17;104918;1271;75455;-30
2022/03/10 05:26:13;;;;;;;7.10;4.70;;;;;;;-4.64;69.89;100039.80;104988;1271;75966;-33
2022/03/10 05:28:43;;;;;;;8.60;5.10;;;;;;;-5.07;70.54;100039.05;104807;1271;75151;-31
2022/03/10 05:31:12;;;;;;;11.70;5.80;;;;;;;-5.25;71.60;100044.83;104872;1271;61029;-28
2022/03/10 05:33:41;;;;;;;8.80;5.50;;;;;;;-5.28;72.31;100047.37;104812;1271;61010;-29
2022/03/10 05:36:11;;;;;;;10.00;6.70;;;;;;;-5.48;73.47;100048.05;104810;1271;75185;-28
2022/03/10 05:38:41;;;;;;;9.90;6.10;;;;;;;-5.47;75.43;100050.09;104768;1271;75139;-32
2022/03/10 05:41:11;;;;;;;11.00;5.60;;;;;;;-5.50;75.38;100052.28;105019;1271;74445;-29
2022/03/10 05:43:42;;;;;;;8.70;5.10;;;;;;;-5.45;75.77;100058.71;104952;1271;61462;-28
2022/03/10 05:46:11;;;;;;;21.80;12.10;;;;;;;-5.20;74.97;100060.91;104747;1274;61168;-29
2022/03/10 05:48:41;;;;;;;9.50;5.60;;;;;;;-5.22;75.22;100064.47;104872;1271;75530;-29
2022/03/10 05:51:11;;;;;;;6.60;4.80;;;;;;;-5.15;74.09;100064.80;104904;1271;76090;-29
2022/03/10 05:53:40;;;;;;;13.80;7.60;;;;;;;-5.44;75.06;100068.88;104809;1271;73812;-29
2022/03/10 05:56:10;;;;;;;11.90;7.00;;;;;;;-5.52;75.25;100073.10;104945;1274;61628;-29
2022/03/10 05:58:39;;;;;;;7.40;4.30;;;;;;;-5.61;75.50;100074.61;104925;1271;61068;-29
2022/03/10 06:01:08;;;;;;;10.50;6.10;;;;;;;-5.49;75.03;100081.58;104805;1271;74654;-29
2022/03/10 06:03:38;;;;;;;10.30;6.10;;;;;;;-5.55;75.21;100082.74;104964;1271;74976;-29
2022/03/10 06:06:11;;;;;;;10.50;6.00;;;;;;;-5.40;75.20;100088.67;104804;1271;73136;-29
2022/03/10 06:08:40;;;;;;;11.80;7.00;;;;;;;-4.86;73.30;100097.12;104683;1271;61132;-29
2022/03/10 06:11:09;;;;;;;10.70;7.10;;;;;;;-5.16;72.85;100087.67;104866;1271;61115;-29
2022/03/10 06:13:38;;;;;;;10.30;7.10;;;;;;;-5.25;72.65;100090.38;104823;1271;74540;-29
2022/03/10 06:16:08;;;;;;;6.60;4.20;;;;;;;-5.36;73.85;100097.82;104768;1271;76079;-29
2022/03/10 06:18:37;;;;;;;9.40;5.80;;;;;;;-5.63;73.18;100104.23;105047;1271;74508;-29
2022/03/10 06:21:08;;;;;;;7.70;5.00;;;;;;;-5.71;73.09;100110.80;105116;1272;61078;-29
2022/03/10 06:23:37;;;;;;;30.40;11.30;;;;;;;-5.73;73.49;100114.86;105129;1271;61137;-29
2022/03/10 06:26:09;;;;;;;15.80;7.40;;;;;;;-5.96;72.88;100108.05;104995;1271;75607;-29
2022/03/10 06:28:39;;;;;;;22.90;9.80;;;;;;;-6.01;73.51;100115.98;104845;1271;75737;-29
2022/03/10 06:31:10;;;;;;;12.90;5.70;;;;;;;-5.83;72.84;100123.63;104806;1271;75091;-29
2022/03/10 06:33:41;;;;;;;14.30;6.40;;;;;;;-5.60;72.03;100125.89;104621;1273;61072;-29
2022/03/10 06:36:12;;;;;;;29.60;9.40;;;;;;;-5.29;70.78;100136.42;104822;1271;61125;-29
2022/03/10 06:38:42;;;;;;;22.90;11.30;;;;;;;-5.36;70.91;100133.88;104802;1271;73389;-29
2022/03/10 06:41:13;;;;;;;14.40;7.90;;;;;;;-5.31;71.53;100142.34;104734;1271;75973;-29
2022/03/10 06:43:42;;;;;;;23.10;10.20;;;;;;;-5.56;72.82;100140.79;104781;1271;73234;-29
2022/03/10 06:46:11;;;;;;;18.50;8.00;;;;;;;-5.88;72.60;100137.31;104798;1273;61832;-29
2022/03/10 06:48:41;;;;;;;16.70;8.60;;;;;;;-6.13;72.86;100139.61;104805;1271;61170;-29
2022/03/10 06:51:10;;;;;;;23.10;10.10;;;;;;;-6.27;74.23;100147.84;105141;1271;75529;-28
2022/03/10 06:53:40;;;;;;;23.00;12.90;;;;;;;-6.17;74.44;100159.55;105151;1271;75720;-29
2022/03/10 06:56:10;;;;;;;35.50;16.80;;;;;;;-6.21;74.58;100160.71;104980;1271;73130;-29
2022/03/10 06:58:40;;;;;;;43.20;14.10;;;;;;;-5.98;73.91;100164.52;105176;1271;61131;-29
2022/03/10 07:01:09;;;;;;;33.60;13.30;;;;;;;-6.12;71.96;100155.52;104790;1272;61073;-29
2022/03/10 07:03:39;;;;;;;23.00;9.10;;;;;;;-5.83;70.75;100164.23;104818;1271;74260;-29
2022/03/10 07:06:09;;;;;;;13.10;4.30;;;;;;;-5.42;69.43;100167.38;104673;1273;76053;-29
2022/03/10 07:08:38;;;;;;;6.90;4.50;;;;;;;-4.92;68.58;100170.82;105127;1271;74472;-31
2022/03/10 07:11:08;;;;;;;10.70;4.90;;;;;;;-5.26;68.75;100169.27;104873;1271;61077;-28
2022/03/10 07:13:38;;;;;;;45.50;13.90;;;;;;;-5.21;69.22;100171.98;104785;1271;61069;-29
2022/03/10 07:16:07;;;;;;;49.20;11.30;;;;;;;-5.28;70.15;100174.00;104803;1271;75442;-29
2022/03/10 07:18:37;;;;;;;36.50;11.90;;;;;;;-5.14;70.00;100173.35;104783;1271;76028;-29
2022/03/10 07:21:06;;;;;;;55.00;16.70;;;;;;;-5.37;69.47;100167.91;104773;1271;73541;-30
2022/03/10 07:23:35;;;;;;;52.00;16.50;;;;;;;-5.40;69.70;100171.80;104841;1271;61120;-29
2022/03/10 07:26:04;;;;;;;28.00;10.90;;;;;;;-5.30;69.37;100173.16;104814;1271;61026;-29
2022/03/10 07:28:34;;;;;;;18.10;8.60;;;;;;;-5.34;69.07;100171.64;105123;1271;75564;-28
2022/03/10 07:31:03;;;;;;;15.60;8.50;;;;;;;-5.66;69.05;100170.02;104813;1271;75088;-30
2022/03/10 07:33:32;;;;;;;14.80;8.50;;;;;;;-5.97;68.48;100175.19;104831;1271;74492;-29
2022/03/10 07:40:47;;;;;;;13.90;8.30;;;;;;;-5.93;69.25;100185.00;104777;1271;61644;-30
2022/03/10 07:43:17;;;;;;;13.50;8.00;;;;;;;-5.95;67.65;100179.58;104777;1271;74291;-28
2022/03/10 07:45:50;;;;;;;18.30;8.70;;;;;;;-6.01;67.02;100190.06;104798;1271;76003;-28
2022/03/10 07:48:21;;;;;;;23.90;16.20;;;;;;;-6.10;66.49;100182.06;104769;1271;73449;-29
2022/03/10 07:50:50;;;;;;;48.40;33.20;;;;;;;-6.02;66.19;100188.69;104808;1271;61141;-30
2022/03/10 07:53:19;;;;;;;52.30;26.20;;;;;;;-6.03;64.07;100187.68;104787;1271;61143;-28
2022/03/10 07:55:50;;;;;;;85.70;31.20;;;;;;;-5.99;63.75;100194.78;104806;1271;75920;-28
2022/03/10 07:58:19;;;;;;;53.90;23.50;;;;;;;-5.96;62.74;100189.55;104805;1271;76000;-28
2022/03/10 08:00:48;;;;;;;22.20;11.80;;;;;;;-6.13;60.81;100190.17;104741;1272;73893;-28
2022/03/10 08:03:17;;;;;;;26.60;15.10;;;;;;;-6.15;60.68;100186.27;104846;1271;61013;-28
2022/03/10 08:05:47;;;;;;;36.50;15.40;;;;;;;-5.97;60.54;100192.27;104711;1273;61056;-28
2022/03/10 08:08:17;;;;;;;19.50;10.40;;;;;;;-5.70;60.41;100192.18;104814;1271;75888;-28
2022/03/10 08:10:47;;;;;;;22.60;10.60;;;;;;;-5.54;61.80;100189.18;104636;1271;76185;-28
2022/03/10 08:13:17;;;;;;;9.30;5.10;;;;;;;-5.43;61.80;100191.77;104734;1271;74647;-28
2022/03/10 08:15:47;;;;;;;81.40;39.00;;;;;;;-5.58;60.33;100185.80;104760;1271;60945;-28
2022/03/10 08:18:17;;;;;;;64.90;33.80;;;;;;;-5.86;58.19;100175.38;104752;1273;61144;-28
2022/03/10 08:20:49;;;;;;;34.10;18.40;;;;;;;-5.84;57.17;100186.89;104829;1271;75568;-28
2022/03/10 08:23:19;;;;;;;100.30;35.50;;;;;;;-5.95;56.48;100185.34;104835;1271;74738;-28
2022/03/10 08:25:48;;;;;;;79.60;39.80;;;;;;;-5.84;55.81;100186.04;104851;1271;73724;-28
2022/03/10 08:28:17;;;;;;;232.80;124.30;;;;;;;-5.78;56.63;100184.38;104773;1271;61027;-28
2022/03/10 08:30:46;;;;;;;7.80;4.90;;;;;;;-5.67;54.59;100189.14;104798;1271;61024;-31
2022/03/10 08:33:17;;;;;;;11.40;5.50;;;;;;;-5.56;54.69;100184.45;104938;1271;75891;-28
2022/03/10 08:35:47;;;;;;;13.20;6.10;;;;;;;-5.47;54.47;100189.21;104807;1271;73213;-28
2022/03/10 08:38:17;;;;;;;10.90;6.00;;;;;;;-5.47;54.75;100181.27;104761;1272;72831;-28
2022/03/10 08:40:46;;;;;;;31.40;20.10;;;;;;;-5.49;57.41;100182.77;104747;1272;61125;-28
2022/03/10 08:43:22;;;;;;;13.40;5.90;;;;;;;-5.70;57.35;100193.20;104778;1271;61064;-28
2022/03/10 08:45:58;;;;;;;15.90;10.50;;;;;;;-5.75;56.96;100198.95;104591;1272;75674;-28
2022/03/10 08:48:32;;;;;;;9.90;4.50;;;;;;;-5.85;56.08;100192.30;104732;1271;76078;-28
2022/03/10 08:51:02;;;;;;;14.60;7.80;;;;;;;-5.66;56.15;100202.85;104762;1271;72932;-29
2022/03/10 08:53:31;;;;;;;7.40;4.40;;;;;;;-5.65;55.83;100209.80;104631;1271;61013;-28
2022/03/10 08:56:00;;;;;;;11.90;4.00;;;;;;;-5.80;56.32;100208.23;104743;1273;61029;-29
2022/03/10 08:58:30;;;;;;;8.30;4.60;;;;;;;-5.85;55.22;100210.56;104808;1271;74042;-29
2022/03/10 09:01:03;;;;;;;8.80;4.70;;;;;;;-5.68;53.54;100212.32;104757;1272;75970;-28
2022/03/10 09:03:53;;;;;;;9.10;4.50;;;;;;;-5.32;51.20;100211.58;104758;1271;72085;-29
2022/03/10 09:06:25;;;;;;;5.60;3.40;;;;;;;-5.20;50.84;100215.67;104899;1271;61023;-29
2022/03/10 09:08:55;;;;;;;7.00;3.50;;;;;;;-5.14;51.09;100208.58;104937;1271;60963;-29
2022/03/10 09:11:30;;;;;;;6.20;3.60;;;;;;;-4.51;50.48;100217.22;104699;1272;73937;-29
2022/03/10 09:13:59;;;;;;;10.40;4.90;;;;;;;-4.39;50.17;100225.86;104793;1273;75260;-29
2022/03/10 09:16:29;;;;;;;11.00;5.50;;;;;;;-4.62;51.01;100224.36;104788;1271;74052;-29
2022/03/10 09:19:00;;;;;;;6.00;2.90;;;;;;;-5.13;51.36;100219.75;104778;1271;61247;-29
2022/03/10 09:21:30;;;;;;;6.20;3.50;;;;;;;-5.33;52.09;100220.89;104726;1271;61108;-29
2022/03/10 09:24:00;;;;;;;15.90;6.80;;;;;;;-5.65;51.91;100221.81;104771;1272;74514;-28
2022/03/10 09:26:32;;;;;;;20.60;10.40;;;;;;;-5.29;52.86;100232.25;104949;1271;72308;-29
2022/03/10 09:29:02;;;;;;;8.50;4.30;;;;;;;-5.17;53.26;100236.50;104755;1272;73805;-29
2022/03/10 09:31:32;;;;;;;13.10;6.00;;;;;;;-5.24;53.21;100242.59;104666;1271;61091;-29
2022/03/10 09:34:04;;;;;;;11.30;6.30;;;;;;;-5.45;54.04;100241.19;104825;1271;61059;-29
2022/03/10 09:36:34;;;;;;;6.10;3.30;;;;;;;-5.26;54.05;100248.67;104796;1271;74096;-29
2022/03/10 09:39:03;;;;;;;12.70;6.50;;;;;;;-5.36;52.33;100243.05;104769;1272;73210;-30
2022/03/10 09:41:37;;;;;;;;;;;;;;;-5.52;52.76;100248.09;104990;1271;74016;-29
2022/03/10 09:44:20;;;;;;;7.50;5.00;;;;;;;-5.34;53.03;100244.11;104868;1271;61177;-28
2022/03/10 09:46:51;;;;;;;11.90;7.50;;;;;;;-5.66;52.53;100242.10;104689;1271;61149;-28
2022/03/10 09:49:22;;;;;;;9.80;5.10;;;;;;;-5.39;52.27;100246.95;104797;1271;75310;-29
2022/03/10 09:51:52;;;;;;;7.60;4.10;;;;;;;-5.04;53.08;100248.23;104837;1271;75604;-29
2022/03/10 09:54:21;;;;;;;6.40;4.10;;;;;;;-4.89;52.81;100245.20;104807;1271;73017;-29
2022/03/10 09:56:50;;;;;;;8.00;4.30;;;;;;;-5.02;51.98;100249.23;104702;1271;61141;-29
2022/03/10 09:59:20;;;;;;;15.40;6.00;;;;;;;-5.37;51.62;100250.85;104645;1271;61216;-29
2022/03/10 10:01:51;;;;;;;16.30;8.00;;;;;;;-5.43;51.61;100252.52;104777;1271;75790;-29
2022/03/10 10:04:21;;;;;;;24.80;10.80;;;;;;;-5.70;50.89;100248.20;104823;1271;75680;-29
2022/03/10 10:07:02;;;;;;;11.70;5.20;;;;;;;-5.65;50.88;100253.11;105007;1271;72930;-29
2022/03/10 10:09:44;;;;;;;6.70;3.30;;;;;;;-5.47;51.14;100252.01;104887;1271;61034;-29
2022/03/10 10:12:15;;;;;;;7.10;4.00;;;;;;;-5.30;50.64;100255.61;104955;1271;61137;-28
2022/03/10 10:14:46;;;;;;;4.90;3.40;;;;;;;-5.19;49.78;100251.40;104980;1271;73984;-29
2022/03/10 10:17:32;;;;;;;5.20;3.20;;;;;;;-5.24;49.47;100251.05;105110;1271;74606;-28
2022/03/10 10:20:24;;;;;;;7.60;4.30;;;;;;;-5.43;49.08;100244.40;104778;1271;72914;-29
2022/03/10 10:22:54;;;;;;;9.40;3.20;;;;;;;-5.40;49.41;100245.77;104745;1272;60994;-29
2022/03/10 10:25:23;;;;;;;9.00;5.50;;;;;;;-5.11;49.86;100254.46;105144;1271;61056;-29
2022/03/10 10:28:21;;;;;;;6.80;3.50;;;;;;;-4.69;48.80;100248.59;104904;1271;74041;-28
2022/03/10 10:31:01;;;;;;;11.10;4.60;;;;;;;-4.48;48.71;100246.73;104722;1271;73291;-29
2022/03/10 10:33:33;;;;;;;44.40;19.70;;;;;;;-4.49;48.71;100246.23;104750;1271;71524;-29
2022/03/10 10:36:24;;;;;;;9.60;5.50;;;;;;;-4.92;49.05;100241.11;104781;1271;61109;-29
2022/03/10 10:39:11;;;;;;;9.50;5.80;;;;;;;-5.45;50.15;100247.77;105008;1271;61377;-29
2022/03/10 10:41:45;;;;;;;10.30;5.50;;;;;;;-5.56;50.75;100241.83;105157;1272;71516;-30
2022/03/10 10:44:19;;;;;;;;;;;;;;;-5.39;51.20;100251.69;104991;1272;73379;-30
2022/03/10 10:46:59;;;;;;;14.10;5.90;;;;;;;-5.44;52.27;100252.52;104986;1271;71685;-29
2022/03/10 10:49:35;;;;;;;11.50;5.90;;;;;;;-5.67;52.79;100250.40;104486;1271;61034;-29
2022/03/10 10:52:11;;;;;;;9.00;5.70;;;;;;;-5.75;53.48;100252.05;104752;1271;61591;-29
2022/03/10 10:54:42;;;;;;;17.90;8.50;;;;;;;-5.78;53.68;100255.09;104637;1272;73023;-28
2022/03/10 10:57:20;;;;;;;9.20;5.10;;;;;;;-5.84;52.96;100254.21;104757;1271;74845;-29
2022/03/10 11:00:02;;;;;;;12.10;6.20;;;;;;;-5.48;52.15;100260.13;104015;1273;1003792;-31
2022/03/10 11:02:34;;;;;;;7.00;4.00;;;;;;;-5.64;50.99;100250.92;104908;1271;61174;-29
2022/03/10 11:05:08;;;;;;;7.90;5.20;;;;;;;-5.61;51.17;100255.67;104895;1271;61170;-31
2022/03/10 11:07:40;;;;;;;4.00;1.80;;;;;;;-5.44;50.43;100256.08;104832;1271;73086;-29
2022/03/10 11:10:12;;;;;;;8.30;3.80;;;;;;;-5.27;50.15;100251.72;104716;1271;74894;-28
2022/03/10 11:12:51;;;;;;;11.30;5.20;;;;;;;-4.98;50.45;100250.77;104633;1271;72914;-28
2022/03/10 11:15:21;;;;;;;12.40;7.20;;;;;;;-4.87;48.18;100249.77;104868;1271;61109;-30
2022/03/10 11:17:52;;;;;;;12.30;5.80;;;;;;;-4.17;48.29;100251.95;104816;1271;61188;-30
2022/03/10 11:20:24;;;;;;;14.10;7.20;;;;;;;-4.22;48.02;100245.68;104773;1271;73156;-30
2022/03/10 11:23:27;;;;;;;22.30;10.00;;;;;;;-4.39;47.01;100253.84;104775;1271;73827;-29
2022/03/10 11:26:07;;;;;;;18.90;10.00;;;;;;;-4.74;45.37;100250.79;104918;1271;71875;-29
2022/03/10 11:28:44;;;;;;;14.10;7.10;;;;;;;-4.66;46.42;100251.48;104778;1271;61132;-29
2022/03/10 11:31:15;;;;;;;10.60;5.30;;;;;;;-4.82;47.29;100255.38;104975;1272;61048;-30
2022/03/10 11:34:00;;;;;;;24.40;9.90;;;;;;;-4.83;45.52;100253.33;104747;1271;74093;-29
2022/03/10 11:36:37;;;;;;;16.00;6.40;;;;;;;-4.69;45.27;100255.38;104836;1271;74722;-29
2022/03/10 11:39:09;;;;;;;10.20;5.60;;;;;;;-4.92;45.39;100252.63;104778;1271;72855;-29
2022/03/10 11:41:48;;;;;;;16.70;7.90;;;;;;;-5.31;46.91;100257.81;104792;1271;61135;-30